Prairie City, Iowa
Current Conditions -  °F | °C
As of 3:35 AM on Saturday 29 Nov 2014 (Local Time) from KTNU Reporting Station
Clear Clear  
Wind Chill: 23°   Ceiling: Unl
Heat Index: 30°   Visibility: 10mi
Dew Point: 28°   Wind: 8mph
Humidity: 93%   Direction: 160°SSE
Pressure: 29.59"   Gusts: NA
Location:  41.6°N, 93.24°W
Report Text: KTNU 290935Z AUTO 16007KT 10SM CLR M01/M02 A2959 RMK AO2
Loading
Personal Weather Stations






























Interactive Weather Map New forecast layout! Learn more

10-Day Weather Forecast

Advertisements
Track Severe Weather on mobile